METAR LDDU 280600Z 04003KT 350V090 CAVOK 29/12 Q1016 NOSIG=
METAR LDDU 280530Z 08004KT 050V120 CAVOK 31/10 Q1016 NOSIG=
METAR LDDU 280500Z 09006KT CAVOK 29/09 Q1016 NOSIG=
METAR LDDU 280430Z 07006KT CAVOK 27/10 Q1016 NOSIG=
METAR LDDU 280400Z VRB02KT CAVOK 28/10 Q1016 NOSIG=
METAR LDDU 280330Z 32004KT CAVOK 25/12 Q1015 NOSIG=
METAR LDDU 280300Z 10005KT 060V140 CAVOK 24/13 Q1015 NOSIG=
METAR LDDU 280230Z 09008KT CAVOK 24/13 Q1015 NOSIG=
METAR LDDU 280200Z 09010KT CAVOK 25/11 Q1016 NOSIG=
METAR LDDU 280130Z 10006KT CAVOK 24/13 Q1016=
METAR LDDU 280100Z VRB02KT CAVOK 27/12 Q1016=
METAR LDDU 280030Z 31005KT CAVOK 26/14 Q1016=
METAR LDDU 280000Z 30007KT CAVOK 26/13 Q1016=
METAR LDDU 272330Z 10005KT 360V140 CAVOK 27/12 Q1016=
METAR LDDU 272300Z VRB04KT CAVOK 28/12 Q1017=
METAR LDDU 272230Z 06004KT 030V110 CAVOK 27/11 Q1017=
METAR LDDU 272200Z 36003KT 320V050 CAVOK 28/12 Q1017=
METAR LDDU 272130Z 30005KT CAVOK 27/14 Q1017=
METAR LDDU 272100Z 31005KT CAVOK 27/14 Q1017 NOSIG=
METAR LDDU 272030Z 30007KT CAVOK 27/13 Q1017 NOSIG=
METAR LDDU 272000Z 10003KT CAVOK 27/12 Q1016 NOSIG=
METAR LDDU 271930Z 10003KT 070V130 CAVOK 28/12 Q1016 NOSIG=
METAR LDDU 271900Z VRB02KT CAVOK 29/13 Q1016 NOSIG=
METAR LDDU 271830Z 29003KT 240V320 CAVOK 30/12 Q1016 NOSIG=
METAR LDDU 271800Z 29004KT CAVOK 31/11 Q1016 NOSIG=
METAR LDDU 271730Z VRB02KT CAVOK 31/14 Q1016 NOSIG=
METAR LDDU 271700Z VRB02KT CAVOK 32/13 Q1016 NOSIG=
METAR LDDU 271630Z 30003KT 260V340 CAVOK 32/12 Q1016 NOSIG=
METAR LDDU 271600Z 29004KT 270V330 CAVOK 33/12 Q1017 NOSIG=
METAR LDDU 271530Z 29005KT 240V320 CAVOK 33/11 Q1017 NOSIG=
METAR LDDU 271500Z 29006KT 240V340 CAVOK 32/13 Q1017 BECMG 23006KT=
METAR LDDU 271430Z 28004KT 210V350 CAVOK 33/13 Q1017 TEMPO 30008KT=
METAR LDDU 271400Z 24006KT 210V280 CAVOK 32/14 Q1018 TEMPO 30008KT=
METAR LDDU 271330Z 23007KT CAVOK 32/12 Q1018 TEMPO 30008KT=
METAR LDDU 271300Z 26004KT 170V330 CAVOK 33/14 Q1018 TEMPO 30008KT=
METAR LDDU 271230Z 26005KT 200V290 CAVOK 32/12 Q1018 NOSIG=
METAR LDDU 271200Z 23006KT 170V260 CAVOK 32/12 Q1018 NOSIG=
METAR LDDU 271130Z 22005KT 160V320 CAVOK 32/13 Q1018 NOSIG=
METAR LDDU 271100Z 22006KT 150V260 CAVOK 32/12 Q1018 NOSIG=
METAR LDDU 271030Z 20006KT 140V250 CAVOK 31/13 Q1018 NOSIG=
METAR LDDU 271000Z 19006KT 150V220 CAVOK 31/14 Q1019 NOSIG=
METAR LDDU 270930Z 21007KT 170V230 CAVOK 31/14 Q1018 NOSIG=
METAR LDDU 270900Z 19007KT CAVOK 31/13 Q1018 NOSIG=
METAR LDDU 270830Z 18006KT 140V220 CAVOK 31/11 Q1018 NOSIG=
METAR LDDU 270800Z 29006KT 240V320 CAVOK 31/11 Q1018 BECMG 24007KT=
METAR LDDU 270730Z VRB02KT CAVOK 31/10 Q1018 NOSIG=
METAR LDDU 270700Z 15004KT 110V200 CAVOK 30/11 Q1018 NOSIG=
METAR LDDU 270630Z 19003KT 150V220 CAVOK 30/10 Q1018 NOSIG=
METAR LDDU 270600Z 29003KT 230V330 CAVOK 29/10 Q1018 NOSIG=
METAR LDDU 270530Z 00000KT CAVOK 27/11 Q1017 NOSIG=
METAR LDDU 270500Z 13005KT CAVOK 25/11 Q1017 NOSIG=
METAR LDDU 270430Z 12005KT 070V140 CAVOK 24/10 Q1017 NOSIG=
METAR LDDU 270400Z 07005KT CAVOK 27/10 Q1017 NOSIG=
METAR LDDU 270330Z 03004KT 340V100 CAVOK 27/09 Q1017 NOSIG=
METAR LDDU 270300Z 07004KT 030V090 CAVOK 24/10 Q1017 NOSIG=
METAR LDDU 270230Z 08004KT 060V120 CAVOK 24/09 Q1017 NOSIG=
METAR LDDU 270200Z 09007KT CAVOK 25/09 Q1017 NOSIG=
METAR LDDU 270130Z 10008KT CAVOK 25/09 Q1017=
METAR LDDU 270100Z 11009KT CAVOK 26/09 Q1017=
METAR LDDU 270030Z 11008KT CAVOK 25/10 Q1017=
METAR LDDU 270000Z 09009KT CAVOK 25/10 Q1017=
METAR LDDU 262330Z 09007KT CAVOK 24/12 Q1017=
METAR LDDU 262300Z 12006KT CAVOK 23/12 Q1017=
METAR LDDU 262230Z VRB02KT CAVOK 23/12 Q1017=
METAR LDDU 262200Z 11004KT CAVOK 24/11 Q1017=
METAR LDDU 262130Z 10007KT CAVOK 26/11 Q1017=
METAR LDDU 262100Z 08006KT CAVOK 27/11 Q1017 NOSIG=
METAR LDDU 262030Z 13003KT CAVOK 26/12 Q1017 NOSIG=
METAR LDDU 262000Z VRB02KT CAVOK 27/12 Q1017 NOSIG=
METAR LDDU 261930Z 25003KT 180V330 CAVOK 27/12 Q1017 NOSIG=
METAR LDDU 261900Z VRB02KT CAVOK 27/14 Q1017 NOSIG=
METAR LDDU 261830Z 08007KT CAVOK 29/13 Q1016 NOSIG=